createdAt,value
2022-09-04T00:01:32.225Z,96470.75
2022-09-04T00:04:03.498Z,96468.13
2022-09-04T00:06:32.384Z,96468.00
2022-09-04T00:09:05.956Z,96470.97
2022-09-04T00:11:38.641Z,96463.84
2022-09-04T00:14:07.309Z,96466.59
2022-09-04T00:16:37.088Z,96469.56
2022-09-04T00:19:09.094Z,96466.75
2022-09-04T00:21:37.637Z,96472.47
2022-09-04T00:24:06.502Z,96467.31
2022-09-04T00:26:42.647Z,96469.41
2022-09-04T00:29:11.825Z,96463.28
2022-09-04T00:31:42.652Z,96476.16
2022-09-04T00:34:18.823Z,96472.34
2022-09-04T00:36:50.153Z,96472.16
2022-09-04T00:39:19.991Z,96477.72
2022-09-04T00:41:52.890Z,96473.31
2022-09-04T00:44:39.026Z,96473.13
2022-09-04T00:47:09.991Z,96482.84
2022-09-04T00:49:57.955Z,96480.44
2022-09-04T00:52:36.633Z,96482.97
2022-09-04T00:55:09.337Z,96479.66
2022-09-04T00:57:57.727Z,96479.72
2022-09-04T01:00:30.308Z,96482.31
2022-09-04T01:03:25.777Z,96476.06
2022-09-04T01:06:05.367Z,96482.44
2022-09-04T01:08:41.193Z,96492.47
2022-09-04T01:11:10.986Z,96495.72
2022-09-04T01:13:41.522Z,96497.50
2022-09-04T01:16:11.285Z,96497.50
2022-09-04T01:18:42.191Z,96501.53
2022-09-04T01:21:18.085Z,96508.28
2022-09-04T01:24:06.401Z,96513.09
2022-09-04T01:26:42.198Z,96502.19
2022-09-04T01:29:14.698Z,96503.94
2022-09-04T01:31:44.989Z,96506.47
2022-09-04T01:34:22.078Z,96515.09
2022-09-04T01:36:50.816Z,96513.56
2022-09-04T01:39:22.928Z,96522.00
2022-09-04T01:41:54.387Z,96521.00
2022-09-04T01:44:22.769Z,96515.97
2022-09-04T01:46:56.357Z,96519.16
2022-09-04T01:49:26.923Z,96514.66
2022-09-04T01:51:57.463Z,96520.72
2022-09-04T01:54:27.777Z,96524.69
2022-09-04T01:56:58.853Z,96526.34
2022-09-04T01:59:28.073Z,96524.81
2022-09-04T02:01:58.554Z,96538.13
2022-09-04T02:04:28.833Z,96521.94
2022-09-04T02:06:58.731Z,96525.84
2022-09-04T02:09:32.757Z,96529.34
2022-09-04T02:12:08.786Z,96531.81
2022-09-04T02:14:37.484Z,96536.56
2022-09-04T02:17:18.436Z,96536.75
2022-09-04T02:19:52.412Z,96535.88
2022-09-04T02:22:25.130Z,96534.50
2022-09-04T02:24:54.506Z,96537.59
2022-09-04T02:27:26.594Z,96535.22
2022-09-04T02:30:04.567Z,96537.97
2022-09-04T02:32:37.803Z,96544.41
2022-09-04T02:35:09.907Z,96551.59
2022-09-04T02:37:42.373Z,96543.09
2022-09-04T02:40:12.057Z,96530.53
2022-09-04T02:42:42.768Z,96529.38
2022-09-04T02:45:13.936Z,96533.72
2022-09-04T02:47:46.048Z,96541.50
2022-09-04T02:50:16.174Z,96530.38
2022-09-04T02:52:48.038Z,96532.25
2022-09-04T02:55:19.479Z,96541.31
2022-09-04T02:57:55.272Z,96534.38
2022-09-04T03:00:24.423Z,96537.72
2022-09-04T03:02:56.064Z,96538.31
2022-09-04T03:05:24.662Z,96534.63
2022-09-04T03:07:57.722Z,96536.53
2022-09-04T03:10:26.482Z,96559.66
2022-09-04T03:13:00.939Z,96543.88
2022-09-04T03:15:29.885Z,96540.63
2022-09-04T03:17:59.952Z,96545.44
2022-09-04T03:20:29.018Z,96541.13
2022-09-04T03:22:58.800Z,96544.09
2022-09-04T03:25:31.550Z,96550.63
2022-09-04T03:28:03.479Z,96577.28
2022-09-04T03:30:31.209Z,96545.84
2022-09-04T03:33:02.991Z,96545.38
2022-09-04T03:35:34.544Z,96555.88
2022-09-04T03:38:05.458Z,96555.78
2022-09-04T03:40:38.162Z,96553.59
2022-09-04T03:43:21.566Z,96560.31
2022-09-04T03:45:54.461Z,96559.34
2022-09-04T03:48:26.526Z,96562.03
2022-09-04T03:50:56.608Z,96559.72
2022-09-04T03:53:30.281Z,96554.22
2022-09-04T03:56:02.637Z,96563.28
2022-09-04T03:58:38.263Z,96306.56
2022-09-04T04:01:09.934Z,96559.81
2022-09-04T04:03:40.956Z,96562.31
2022-09-04T04:06:13.055Z,96569.63
2022-09-04T04:09:02.225Z,96571.53
2022-09-04T04:11:43.439Z,96574.38
2022-09-04T04:14:16.290Z,96577.38
2022-09-04T04:16:56.374Z,96573.91
2022-09-04T04:19:34.389Z,96579.50
2022-09-04T04:22:06.120Z,96572.78
2022-09-04T04:24:40.786Z,96583.78
2022-09-04T04:27:13.315Z,96590.44
2022-09-04T04:29:49.659Z,96596.56
2022-09-04T04:32:28.330Z,96597.66
2022-09-04T04:35:05.528Z,96598.66
2022-09-04T04:37:36.213Z,96600.13
2022-09-04T04:40:08.100Z,96603.81
2022-09-04T04:42:37.111Z,96607.19
2022-09-04T04:45:38.515Z,96607.44
2022-09-04T04:48:14.619Z,96618.09
2022-09-04T04:50:44.126Z,96614.75
2022-09-04T04:53:16.604Z,96624.28
2022-09-04T04:55:50.496Z,96630.44
2022-09-04T04:58:33.662Z,96626.06
2022-09-04T05:01:05.318Z,96632.59
2022-09-04T05:03:43.495Z,96637.38
2022-09-04T05:06:13.177Z,96637.75
2022-09-04T05:08:46.333Z,96637.13
2022-09-04T05:11:16.713Z,96640.91
2022-09-04T05:13:50.255Z,96641.41
2022-09-04T05:16:22.239Z,96645.13
2022-09-04T05:18:58.906Z,96651.06
2022-09-04T05:21:41.698Z,96683.75
2022-09-04T05:24:10.814Z,96652.81
2022-09-04T05:26:40.594Z,96663.22
2022-09-04T05:29:11.902Z,96661.56
2022-09-04T05:31:42.112Z,96666.47
2022-09-04T05:34:13.835Z,96667.53
2022-09-04T05:36:48.355Z,96664.53
2022-09-04T05:39:19.731Z,96681.00
2022-09-04T05:41:54.605Z,96684.47
2022-09-04T05:44:34.970Z,96686.63
2022-09-04T05:47:06.501Z,96694.19
2022-09-04T05:49:43.494Z,96690.56
2022-09-04T05:52:20.189Z,96697.72
2022-09-04T05:55:11.730Z,96709.19
2022-09-04T05:57:42.752Z,96713.59
2022-09-04T06:00:11.331Z,96711.28
2022-09-04T06:02:57.812Z,96709.94
2022-09-04T06:05:37.549Z,96719.81
2022-09-04T06:08:10.321Z,96719.81
2022-09-04T06:10:42.613Z,96719.81
2022-09-04T06:13:19.173Z,96719.69
2022-09-04T06:15:50.052Z,96720.63
2022-09-04T06:18:28.093Z,96725.59
2022-09-04T06:21:04.666Z,96727.78
2022-09-04T06:23:59.114Z,96732.56
2022-09-04T06:26:38.362Z,96733.16
2022-09-04T06:29:13.717Z,96736.34
2022-09-04T06:32:08.321Z,96736.50
2022-09-04T06:34:43.865Z,96739.09
2022-09-04T06:37:21.665Z,96738.28
2022-09-04T06:39:52.690Z,96739.50
2022-09-04T06:42:34.667Z,96736.44
2022-09-04T06:45:07.640Z,96742.16
2022-09-04T06:47:42.688Z,96735.41
2022-09-04T06:50:14.632Z,96742.22
2022-09-04T06:52:46.097Z,96740.13
2022-09-04T06:55:15.159Z,96740.75
2022-09-04T06:57:54.180Z,96741.66
2022-09-04T07:00:23.657Z,96753.44
2022-09-04T07:03:14.889Z,96751.72
2022-09-04T07:05:44.289Z,96755.63
2022-09-04T07:08:14.426Z,96756.94
2022-09-04T07:10:46.510Z,96759.91
2022-09-04T07:13:22.203Z,96772.56
2022-09-04T07:16:02.455Z,96774.84
2022-09-04T07:18:35.727Z,96767.31
2022-09-04T07:21:05.310Z,96771.81
2022-09-04T07:23:37.736Z,96771.66
2022-09-04T07:26:08.574Z,96777.13
2022-09-04T07:28:40.543Z,96770.41
2022-09-04T07:31:09.635Z,96782.31
2022-09-04T07:33:39.796Z,96778.28
2022-09-04T07:36:10.140Z,96777.16
2022-09-04T07:38:42.590Z,96777.72
2022-09-04T07:41:17.734Z,96779.00
2022-09-04T07:43:54.621Z,96779.31
2022-09-04T07:46:23.934Z,96782.16
2022-09-04T07:48:58.459Z,96788.63
2022-09-04T07:51:31.626Z,96788.00
2022-09-04T07:54:22.913Z,96791.44
2022-09-04T07:57:05.992Z,96801.16
2022-09-04T07:59:54.758Z,96806.25
2022-09-04T08:02:24.678Z,96799.84
2022-09-04T08:05:06.257Z,96798.72
2022-09-04T08:07:55.100Z,96797.88
2022-09-04T08:10:30.468Z,96802.69
2022-09-04T08:13:00.716Z,96809.59
2022-09-04T08:15:31.019Z,96810.41
2022-09-04T08:18:08.938Z,96811.44
2022-09-04T08:20:41.418Z,96818.31
2022-09-04T08:23:13.898Z,96809.91
2022-09-04T08:26:03.793Z,96813.03
2022-09-04T08:28:46.297Z,96823.09
2022-09-04T08:31:18.272Z,96828.78
2022-09-04T08:33:51.261Z,96829.94
2022-09-04T08:36:21.244Z,96818.78
2022-09-04T08:38:56.528Z,96822.03
2022-09-04T08:41:57.566Z,96828.75
2022-09-04T08:44:46.557Z,96824.78
2022-09-04T08:47:42.965Z,96826.28
2022-09-04T08:50:17.561Z,96826.06
2022-09-04T08:52:57.273Z,96837.59
2022-09-04T08:55:31.497Z,96835.94
2022-09-04T08:58:20.773Z,96833.34
2022-09-04T09:00:57.162Z,96832.13
2022-09-04T09:03:36.117Z,96838.22
2022-09-04T09:06:33.881Z,96836.06
2022-09-04T09:09:23.092Z,96831.91
2022-09-04T09:12:05.602Z,96828.81
2022-09-04T09:14:42.188Z,96821.78
2022-09-04T09:17:14.768Z,96824.72
2022-09-04T09:19:47.269Z,96827.44
2022-09-04T09:22:24.278Z,96825.59
2022-09-04T09:25:13.805Z,96824.56
2022-09-04T09:28:13.666Z,96831.91
2022-09-04T09:30:51.097Z,96821.69
2022-09-04T09:33:39.997Z,96831.00
2022-09-04T09:36:12.386Z,96821.91
2022-09-04T09:39:14.741Z,96821.28
2022-09-04T09:41:59.958Z,96818.88
2022-09-04T09:44:31.519Z,96815.47
2022-09-04T09:47:25.568Z,96816.50
2022-09-04T09:50:08.433Z,96810.47
2022-09-04T09:52:53.870Z,96817.69
2022-09-04T09:55:25.749Z,96812.94
2022-09-04T09:58:15.203Z,96819.50
2022-09-04T10:00:46.474Z,96818.63
2022-09-04T10:03:28.513Z,96816.94
2022-09-04T10:06:09.721Z,96819.28
2022-09-04T10:08:43.481Z,96813.34
2022-09-04T10:11:24.607Z,96814.63
2022-09-04T10:14:06.922Z,96819.59
2022-09-04T10:16:46.110Z,96814.16
2022-09-04T10:19:34.685Z,96814.81
2022-09-04T10:22:21.070Z,96808.28
2022-09-04T10:25:10.909Z,96810.75
2022-09-04T10:28:10.295Z,96812.50
2022-09-04T10:30:45.253Z,96801.31
2022-09-04T10:33:18.956Z,96799.94
2022-09-04T10:35:50.015Z,96806.38
2022-09-04T10:38:26.351Z,96806.00
2022-09-04T10:41:06.638Z,96799.47
2022-09-04T10:43:45.500Z,96802.38
2022-09-04T10:46:23.445Z,96803.91
2022-09-04T10:49:15.992Z,96801.75
2022-09-04T10:51:49.677Z,96798.41
2022-09-04T10:54:36.386Z,96793.00
2022-09-04T10:57:09.853Z,96797.28
2022-09-04T10:59:49.228Z,96804.47
2022-09-04T11:02:27.296Z,96803.94
2022-09-04T11:05:04.005Z,96802.44
2022-09-04T11:07:38.820Z,96807.53
2022-09-04T11:10:17.957Z,96795.03
2022-09-04T11:13:06.602Z,96804.47
2022-09-04T11:15:41.756Z,96807.50
2022-09-04T11:18:22.695Z,96802.69
2022-09-04T11:21:18.750Z,96804.25
2022-09-04T11:23:58.412Z,96813.88
2022-09-04T11:26:47.341Z,96807.63
2022-09-04T11:29:31.127Z,96803.34
2022-09-04T11:32:19.052Z,96801.19
2022-09-04T11:35:20.486Z,96801.97
2022-09-04T11:38:05.861Z,96812.34
2022-09-04T11:40:44.240Z,96802.25
2022-09-04T11:43:19.010Z,96804.03
2022-09-04T11:45:58.004Z,96805.97
2022-09-04T11:48:46.579Z,96806.72
2022-09-04T11:51:39.250Z,96810.91
2022-09-04T11:54:23.571Z,96799.31
2022-09-04T11:57:01.089Z,96806.31
2022-09-04T11:59:44.731Z,96814.00
2022-09-04T12:02:32.545Z,96799.13
2022-09-04T12:05:05.964Z,96802.03
2022-09-04T12:07:42.643Z,96809.94
2022-09-04T12:10:24.017Z,96803.66
2022-09-04T12:13:14.741Z,96803.03
2022-09-04T12:16:07.686Z,96800.88
2022-09-04T12:18:59.324Z,96807.31
2022-09-04T12:21:36.175Z,96805.16
2022-09-04T12:24:15.518Z,96805.56
2022-09-04T12:26:55.110Z,96806.84
2022-09-04T12:29:43.849Z,96801.97
2022-09-04T12:32:17.728Z,96808.34
2022-09-04T12:35:08.920Z,96802.91
2022-09-04T12:37:49.876Z,96788.19
2022-09-04T12:40:34.540Z,96796.41
2022-09-04T12:43:06.892Z,96793.75
2022-09-04T12:45:38.475Z,96792.31
2022-09-04T12:48:13.899Z,96794.16
2022-09-04T12:50:42.059Z,96805.59
2022-09-04T12:53:14.029Z,96806.84
2022-09-04T12:55:45.472Z,96799.91
2022-09-04T12:58:17.863Z,96804.59
2022-09-04T13:00:49.945Z,96811.97
2022-09-04T13:03:21.166Z,96807.88
2022-09-04T13:05:57.163Z,96808.69
2022-09-04T13:08:28.067Z,96814.22
2022-09-04T13:11:01.856Z,96808.78
2022-09-04T13:13:33.897Z,96814.47
2022-09-04T13:16:07.989Z,96813.97
2022-09-04T13:18:41.173Z,96808.13
2022-09-04T13:21:12.225Z,96813.22
2022-09-04T13:23:49.039Z,96808.69
2022-09-04T13:26:38.458Z,96809.94
2022-09-04T13:29:12.266Z,96805.16
2022-09-04T13:31:47.638Z,96801.84
2022-09-04T13:34:18.676Z,96800.44
2022-09-04T13:36:50.275Z,96805.25
2022-09-04T13:39:23.635Z,96807.59
2022-09-04T13:42:00.085Z,96804.28
2022-09-04T13:44:41.211Z,96813.50
2022-09-04T13:47:10.992Z,96813.09
2022-09-04T13:49:40.346Z,96809.47
2022-09-04T13:52:18.318Z,96811.00
2022-09-04T13:54:47.434Z,96806.25
2022-09-04T13:57:17.134Z,96809.47
2022-09-04T13:59:46.212Z,96812.19
2022-09-04T14:02:15.425Z,96799.13
2022-09-04T14:04:44.033Z,96800.63
2022-09-04T14:07:14.586Z,96809.72
2022-09-04T14:09:43.418Z,96801.31
2022-09-04T14:12:18.621Z,96798.53
2022-09-04T14:15:05.577Z,96797.19
2022-09-04T14:17:36.707Z,96797.69
2022-09-04T14:20:05.081Z,96788.25
2022-09-04T14:22:38.137Z,96802.44
2022-09-04T14:25:11.728Z,96805.03
2022-09-04T14:27:43.438Z,96794.34
2022-09-04T14:30:14.782Z,96794.34
2022-09-04T14:32:47.348Z,96798.00
2022-09-04T14:35:19.198Z,96793.53
2022-09-04T14:38:01.822Z,96804.28
2022-09-04T14:40:31.432Z,96796.25
2022-09-04T14:43:02.975Z,96798.84
2022-09-04T14:45:35.389Z,96800.03
2022-09-04T14:48:05.366Z,96820.78
2022-09-04T14:50:34.874Z,96792.66
2022-09-04T14:53:03.730Z,96799.00
2022-09-04T14:55:38.161Z,96802.13
2022-09-04T14:58:06.884Z,96806.31
2022-09-04T15:00:36.558Z,96807.22
2022-09-04T15:03:07.688Z,96803.53
2022-09-04T15:05:35.896Z,96800.47
2022-09-04T15:08:05.707Z,96801.53
2022-09-04T15:10:39.005Z,96808.59
2022-09-04T15:13:35.352Z,96802.84
2022-09-04T15:16:09.419Z,96799.72
2022-09-04T15:18:43.877Z,96795.69
2022-09-04T15:21:12.426Z,96797.53
2022-09-04T15:23:42.164Z,96787.69
2022-09-04T15:26:10.944Z,96786.75
2022-09-04T15:28:40.411Z,96789.66
2022-09-04T15:31:15.631Z,96792.00
2022-09-04T15:33:46.131Z,96791.06
2022-09-04T15:36:15.797Z,96796.25
2022-09-04T15:38:48.747Z,96780.69
2022-09-04T15:41:18.929Z,96776.25
2022-09-04T15:43:48.918Z,96793.50
2022-09-04T15:46:23.238Z,96789.66
2022-09-04T15:48:55.451Z,96795.03
2022-09-04T15:51:28.897Z,96788.19
2022-09-04T15:54:15.546Z,96783.81
2022-09-04T15:56:46.057Z,96779.81
2022-09-04T15:59:16.142Z,96781.69
2022-09-04T16:01:45.935Z,96780.47
2022-09-04T16:04:17.547Z,96776.97
2022-09-04T16:06:45.943Z,96785.03
2022-09-04T16:09:20.971Z,96782.97
2022-09-04T16:12:01.344Z,96785.72
2022-09-04T16:14:29.498Z,96783.19
2022-09-04T16:17:01.495Z,96784.81
2022-09-04T16:19:35.770Z,96783.00
2022-09-04T16:22:06.909Z,96780.81
2022-09-04T16:24:45.300Z,96782.09
2022-09-04T16:27:13.813Z,96783.88
2022-09-04T16:29:45.486Z,96788.25
2022-09-04T16:32:13.185Z,96775.22
2022-09-04T16:34:46.842Z,96779.47
2022-09-04T16:37:16.886Z,96774.44
2022-09-04T16:39:47.694Z,96776.97
2022-09-04T16:42:18.181Z,96781.44
2022-09-04T16:44:46.507Z,96782.03
2022-09-04T16:47:16.208Z,96783.56
2022-09-04T16:49:47.167Z,96781.44
2022-09-04T16:52:28.002Z,96789.69
2022-09-04T16:54:56.458Z,96782.13
2022-09-04T16:57:26.700Z,96778.56
2022-09-04T16:59:57.367Z,96773.56
2022-09-04T17:02:35.722Z,96777.91
2022-09-04T17:05:17.863Z,96778.72
2022-09-04T17:07:48.890Z,96782.72
2022-09-04T17:10:22.657Z,96785.13
2022-09-04T17:12:52.641Z,96779.19
2022-09-04T17:15:26.992Z,96778.97
2022-09-04T17:17:58.836Z,96779.13
2022-09-04T17:20:55.039Z,96778.28
2022-09-04T17:29:03.573Z,96788.06
2022-09-04T17:29:08.418Z,96787.47
2022-09-04T17:29:29.638Z,96782.38
2022-09-04T17:31:53.052Z,96788.34
2022-09-04T17:40:32.781Z,96782.66
2022-09-04T17:40:50.972Z,96788.69
2022-09-04T17:40:53.992Z,96779.69
2022-09-04T17:43:22.287Z,96793.59
2022-09-04T17:45:54.920Z,96781.44
2022-09-04T17:48:24.198Z,96789.97
2022-09-04T17:50:55.541Z,96789.66
2022-09-04T17:53:33.579Z,96791.41
2022-09-04T17:56:06.759Z,96797.38
2022-09-04T17:58:57.702Z,96791.72
2022-09-04T18:01:27.283Z,96793.91
2022-09-04T18:04:21.919Z,96803.69
2022-09-04T18:06:56.655Z,96807.47
2022-09-04T18:09:26.529Z,96806.00
2022-09-04T18:12:00.861Z,96812.53
2022-09-04T18:14:31.915Z,96815.97
2022-09-04T18:17:12.787Z,96818.22
2022-09-04T18:19:43.043Z,96823.16
2022-09-04T18:22:32.079Z,96824.63
2022-09-04T18:25:16.611Z,96828.84
2022-09-04T18:28:06.532Z,96828.59
2022-09-04T18:37:10.334Z,96839.84
2022-09-04T18:37:21.166Z,96838.81
2022-09-04T18:37:27.096Z,96844.22
2022-09-04T18:39:22.894Z,96846.72
2022-09-04T18:46:16.412Z,96848.63
2022-09-04T18:50:25.411Z,96849.84
2022-09-04T18:50:36.649Z,96856.19
2022-09-04T18:51:03.068Z,96862.06
2022-09-04T18:53:20.093Z,96858.34
2022-09-04T18:55:48.356Z,96863.13
2022-09-04T18:58:51.973Z,96868.53
2022-09-04T19:01:26.726Z,96867.63
2022-09-04T19:03:56.917Z,96872.56
2022-09-04T19:06:32.492Z,96864.31
2022-09-04T19:09:03.179Z,96871.84
2022-09-04T19:11:31.797Z,96878.19
2022-09-04T19:14:10.293Z,96881.94
2022-09-04T19:16:41.893Z,96887.44
2022-09-04T19:19:11.162Z,96886.16
2022-09-04T19:21:57.728Z,96892.34
2022-09-04T19:24:28.683Z,96888.59
2022-09-04T19:27:26.503Z,96891.59
2022-09-04T19:30:03.204Z,96892.75
2022-09-04T19:32:58.052Z,96890.94
2022-09-04T19:35:30.096Z,96892.59
2022-09-04T19:40:15.205Z,96883.59
2022-09-04T19:46:07.453Z,96887.91
2022-09-04T19:46:07.544Z,96889.34
2022-09-04T19:46:37.030Z,96886.25
2022-09-04T19:50:12.971Z,96877.78
2022-09-04T19:53:32.456Z,96885.22
2022-09-04T19:55:24.849Z,96885.56
2022-09-04T19:57:48.604Z,96884.16
2022-09-04T20:00:38.325Z,96842.50
2022-09-04T20:03:08.822Z,96879.50
2022-09-04T20:05:40.914Z,96887.25
2022-09-04T20:08:11.109Z,96874.84
2022-09-04T20:10:39.823Z,96878.16
2022-09-04T20:13:15.275Z,96869.78
2022-09-04T20:15:47.504Z,96874.53
2022-09-04T20:18:19.229Z,96873.16
2022-09-04T20:20:49.451Z,96868.44
2022-09-04T20:23:34.904Z,96868.59
2022-09-04T20:26:07.641Z,96879.06
2022-09-04T20:28:37.490Z,96875.59
2022-09-04T20:31:36.224Z,96878.41
2022-09-04T20:34:11.834Z,96877.94
2022-09-04T20:36:49.035Z,96874.47
2022-09-04T20:39:22.352Z,96873.03
2022-09-04T20:41:55.705Z,96875.28
2022-09-04T20:44:24.598Z,96866.09
2022-09-04T20:52:40.855Z,96875.56
2022-09-04T20:52:54.577Z,96871.59
2022-09-04T20:53:07.874Z,96867.03
2022-09-04T20:55:46.359Z,96869.88
2022-09-04T21:03:12.661Z,96872.41
2022-09-04T21:03:24.101Z,96868.59
2022-09-04T21:04:04.930Z,96868.66
2022-09-04T21:06:34.741Z,96876.38
2022-09-04T21:09:25.788Z,96873.97
2022-09-04T21:11:55.596Z,96875.91
2022-09-04T21:14:26.824Z,96867.66
2022-09-04T21:17:06.828Z,96864.50
2022-09-04T21:20:12.285Z,96860.53
2022-09-04T21:22:44.324Z,96868.13
2022-09-04T21:25:22.794Z,96875.22
2022-09-04T21:28:02.260Z,96864.84
2022-09-04T21:30:42.018Z,96875.00
2022-09-04T21:33:26.881Z,96876.44
2022-09-04T21:36:00.346Z,96875.69
2022-09-04T21:38:52.137Z,96875.34
2022-09-04T21:41:29.198Z,96873.03
2022-09-04T21:44:08.447Z,96876.25
2022-09-04T21:46:46.736Z,96882.13
2022-09-04T21:49:27.196Z,96877.66
2022-09-04T21:51:59.094Z,96880.50
2022-09-04T21:56:46.209Z,96883.88
2022-09-04T22:02:25.240Z,96891.38
2022-09-04T22:02:41.705Z,96891.38
2022-09-04T22:03:27.952Z,96887.75
2022-09-04T22:06:03.802Z,96890.28
2022-09-04T22:13:27.410Z,96890.75
2022-09-04T22:13:30.493Z,96890.75
2022-09-04T22:14:26.178Z,96895.47
2022-09-04T22:17:15.411Z,96896.75
2022-09-04T22:19:49.009Z,96901.63
2022-09-04T22:22:28.572Z,96902.91
2022-09-04T22:25:13.411Z,96894.50
2022-09-04T22:28:08.386Z,96898.94
2022-09-04T22:30:41.271Z,96905.44
2022-09-04T22:33:27.158Z,96901.16
2022-09-04T22:36:05.578Z,96905.47
2022-09-04T22:38:35.532Z,96909.22
2022-09-04T22:41:07.003Z,96935.19
2022-09-04T22:43:47.267Z,96912.94
2022-09-04T22:46:36.337Z,96906.53
2022-09-04T22:49:13.522Z,96919.72
2022-09-04T22:52:09.990Z,96907.50
2022-09-04T22:54:44.678Z,96908.19
2022-09-04T22:57:13.337Z,96903.84
2022-09-04T22:59:56.758Z,96911.84
2022-09-04T23:03:07.157Z,96914.25
2022-09-04T23:05:49.916Z,96914.00
2022-09-04T23:13:47.201Z,96917.97
2022-09-04T23:13:58.087Z,96922.56
2022-09-04T23:14:21.777Z,96928.34
2022-09-04T23:17:19.670Z,96928.34
2022-09-04T23:24:52.148Z,96929.78
2022-09-04T23:26:45.674Z,96925.31
2022-09-04T23:26:47.729Z,96928.34
2022-09-04T23:29:00.479Z,96922.88
2022-09-04T23:31:33.623Z,96926.41
2022-09-04T23:34:15.204Z,96923.31
2022-09-04T23:36:53.010Z,96925.63
2022-09-04T23:39:27.184Z,96929.91
2022-09-04T23:41:58.171Z,96931.50
2022-09-04T23:44:37.522Z,96922.16
2022-09-04T23:47:48.258Z,96924.91
2022-09-04T23:50:13.485Z,96932.16
2022-09-04T23:52:48.529Z,96924.69
2022-09-04T23:55:20.524Z,96930.78
2022-09-04T23:57:51.306Z,96927.09
